sensor_id;sensor_type;location;lat;lon;timestamp;P1;durP1;ratioP1;P2;durP2;ratioP2
39346;SDS011;26262;49.836;6.632;2022-12-08T00:01:24;18.08;;;11.48;;
39346;SDS011;26262;49.836;6.632;2022-12-08T00:03:52;21.20;;;12.55;;
39346;SDS011;26262;49.836;6.632;2022-12-08T00:09:22;19.65;;;11.25;;
39346;SDS011;26262;49.836;6.632;2022-12-08T00:12:06;18.58;;;11.52;;
39346;SDS011;26262;49.836;6.632;2022-12-08T00:14:34;19.50;;;11.40;;
39346;SDS011;26262;49.836;6.632;2022-12-08T00:17:00;17.52;;;11.40;;
39346;SDS011;26262;49.836;6.632;2022-12-08T00:19:27;18.00;;;11.60;;
39346;SDS011;26262;49.836;6.632;2022-12-08T00:21:54;17.05;;;12.07;;
39346;SDS011;26262;49.836;6.632;2022-12-08T00:24:20;16.95;;;11.00;;
39346;SDS011;26262;49.836;6.632;2022-12-08T00:26:46;18.55;;;11.20;;
39346;SDS011;26262;49.836;6.632;2022-12-08T00:29:12;14.48;;;10.20;;
39346;SDS011;26262;49.836;6.632;2022-12-08T00:31:38;17.70;;;10.73;;
39346;SDS011;26262;49.836;6.632;2022-12-08T00:34:04;16.58;;;10.45;;
39346;SDS011;26262;49.836;6.632;2022-12-08T00:36:30;19.65;;;11.23;;
39346;SDS011;26262;49.836;6.632;2022-12-08T00:38:56;18.55;;;11.68;;
39346;SDS011;26262;49.836;6.632;2022-12-08T00:41:22;21.00;;;14.15;;
39346;SDS011;26262;49.836;6.632;2022-12-08T00:44:08;21.90;;;12.82;;
39346;SDS011;26262;49.836;6.632;2022-12-08T00:46:37;21.05;;;12.80;;
39346;SDS011;26262;49.836;6.632;2022-12-08T00:49:03;25.95;;;15.10;;
39346;SDS011;26262;49.836;6.632;2022-12-08T00:51:29;20.08;;;13.40;;
39346;SDS011;26262;49.836;6.632;2022-12-08T00:53:55;24.60;;;13.48;;
39346;SDS011;26262;49.836;6.632;2022-12-08T00:56:20;24.33;;;13.82;;
39346;SDS011;26262;49.836;6.632;2022-12-08T00:58:46;21.95;;;13.93;;
39346;SDS011;26262;49.836;6.632;2022-12-08T01:01:12;19.30;;;11.98;;
39346;SDS011;26262;49.836;6.632;2022-12-08T01:03:38;18.02;;;10.68;;
39346;SDS011;26262;49.836;6.632;2022-12-08T01:06:05;15.18;;;10.27;;
39346;SDS011;26262;49.836;6.632;2022-12-08T01:08:31;14.05;;;9.10;;
39346;SDS011;26262;49.836;6.632;2022-12-08T01:11:03;15.13;;;8.98;;
39346;SDS011;26262;49.836;6.632;2022-12-08T01:13:30;16.02;;;8.90;;
39346;SDS011;26262;49.836;6.632;2022-12-08T01:15:56;13.02;;;9.05;;
39346;SDS011;26262;49.836;6.632;2022-12-08T01:18:22;12.07;;;8.13;;
39346;SDS011;26262;49.836;6.632;2022-12-08T01:20:47;14.45;;;9.52;;
39346;SDS011;26262;49.836;6.632;2022-12-08T01:23:13;14.20;;;8.63;;
39346;SDS011;26262;49.836;6.632;2022-12-08T01:25:38;12.05;;;8.50;;
39346;SDS011;26262;49.836;6.632;2022-12-08T01:28:04;13.07;;;8.45;;
39346;SDS011;26262;49.836;6.632;2022-12-08T01:30:29;12.63;;;8.38;;
39346;SDS011;26262;49.836;6.632;2022-12-08T01:32:55;14.52;;;9.18;;
39346;SDS011;26262;49.836;6.632;2022-12-08T01:35:21;14.65;;;9.45;;
39346;SDS011;26262;49.836;6.632;2022-12-08T01:37:46;14.05;;;9.32;;
39346;SDS011;26262;49.836;6.632;2022-12-08T01:40:13;15.50;;;10.20;;
39346;SDS011;26262;49.836;6.632;2022-12-08T01:42:39;18.42;;;10.55;;
39346;SDS011;26262;49.836;6.632;2022-12-08T01:45:06;16.13;;;9.95;;
39346;SDS011;26262;49.836;6.632;2022-12-08T01:47:42;13.95;;;9.65;;
39346;SDS011;26262;49.836;6.632;2022-12-08T01:50:11;17.02;;;9.82;;
39346;SDS011;26262;49.836;6.632;2022-12-08T01:52:41;15.15;;;10.43;;
39346;SDS011;26262;49.836;6.632;2022-12-08T01:55:17;14.85;;;10.55;;
39346;SDS011;26262;49.836;6.632;2022-12-08T01:57:51;15.55;;;10.05;;
39346;SDS011;26262;49.836;6.632;2022-12-08T02:00:27;17.83;;;11.68;;
39346;SDS011;26262;49.836;6.632;2022-12-08T02:02:54;20.27;;;11.75;;
39346;SDS011;26262;49.836;6.632;2022-12-08T02:05:24;23.75;;;13.30;;
39346;SDS011;26262;49.836;6.632;2022-12-08T02:08:11;17.23;;;10.93;;
39346;SDS011;26262;49.836;6.632;2022-12-08T02:10:38;16.50;;;10.52;;
39346;SDS011;26262;49.836;6.632;2022-12-08T02:13:06;17.75;;;10.88;;
39346;SDS011;26262;49.836;6.632;2022-12-08T02:26:59;20.77;;;11.85;;
39346;SDS011;26262;49.836;6.632;2022-12-08T02:35:41;20.52;;;11.00;;
39346;SDS011;26262;49.836;6.632;2022-12-08T02:38:20;22.15;;;12.52;;
39346;SDS011;26262;49.836;6.632;2022-12-08T02:43:40;13.70;;;9.80;;
39346;SDS011;26262;49.836;6.632;2022-12-08T02:46:17;18.38;;;11.60;;
39346;SDS011;26262;49.836;6.632;2022-12-08T02:48:48;17.65;;;11.27;;
39346;SDS011;26262;49.836;6.632;2022-12-08T02:51:15;20.40;;;11.63;;
39346;SDS011;26262;49.836;6.632;2022-12-08T02:53:41;21.25;;;11.60;;
39346;SDS011;26262;49.836;6.632;2022-12-08T03:04:45;19.58;;;11.15;;
39346;SDS011;26262;49.836;6.632;2022-12-08T03:07:19;17.55;;;11.55;;
39346;SDS011;26262;49.836;6.632;2022-12-08T03:09:49;17.98;;;12.25;;
39346;SDS011;26262;49.836;6.632;2022-12-08T03:12:22;20.13;;;9.98;;
39346;SDS011;26262;49.836;6.632;2022-12-08T03:14:55;18.33;;;11.15;;
39346;SDS011;26262;49.836;6.632;2022-12-08T03:17:25;19.55;;;10.70;;
39346;SDS011;26262;49.836;6.632;2022-12-08T03:19:54;16.83;;;9.85;;
39346;SDS011;26262;49.836;6.632;2022-12-08T03:22:23;17.08;;;10.80;;
39346;SDS011;26262;49.836;6.632;2022-12-08T03:24:51;19.17;;;10.35;;
39346;SDS011;26262;49.836;6.632;2022-12-08T03:27:21;19.52;;;10.30;;
39346;SDS011;26262;49.836;6.632;2022-12-08T03:29:51;15.57;;;9.73;;
39346;SDS011;26262;49.836;6.632;2022-12-08T03:34:44;15.88;;;9.90;;
39346;SDS011;26262;49.836;6.632;2022-12-08T03:37:12;14.63;;;9.65;;
39346;SDS011;26262;49.836;6.632;2022-12-08T03:39:37;15.07;;;10.20;;
39346;SDS011;26262;49.836;6.632;2022-12-08T03:42:03;16.23;;;10.20;;
39346;SDS011;26262;49.836;6.632;2022-12-08T03:44:29;16.77;;;10.10;;
39346;SDS011;26262;49.836;6.632;2022-12-08T03:46:54;17.45;;;10.57;;
39346;SDS011;26262;49.836;6.632;2022-12-08T03:49:20;15.80;;;10.02;;
39346;SDS011;26262;49.836;6.632;2022-12-08T03:51:45;18.38;;;10.65;;
39346;SDS011;26262;49.836;6.632;2022-12-08T03:54:11;17.52;;;10.73;;
39346;SDS011;26262;49.836;6.632;2022-12-08T03:56:36;17.10;;;9.35;;
39346;SDS011;26262;49.836;6.632;2022-12-08T03:59:03;16.00;;;9.82;;
39346;SDS011;26262;49.836;6.632;2022-12-08T04:01:30;16.77;;;9.45;;
39346;SDS011;26262;49.836;6.632;2022-12-08T04:03:56;15.43;;;10.55;;
39346;SDS011;26262;49.836;6.632;2022-12-08T04:06:21;16.15;;;8.43;;
39346;SDS011;26262;49.836;6.632;2022-12-08T04:08:47;10.98;;;7.80;;
39346;SDS011;26262;49.836;6.632;2022-12-08T04:11:14;16.52;;;9.40;;
39346;SDS011;26262;49.836;6.632;2022-12-08T04:13:40;14.43;;;8.15;;
39346;SDS011;26262;49.836;6.632;2022-12-08T04:16:06;14.45;;;8.23;;
39346;SDS011;26262;49.836;6.632;2022-12-08T04:18:33;11.55;;;7.50;;
39346;SDS011;26262;49.836;6.632;2022-12-08T04:20:59;13.55;;;8.88;;
39346;SDS011;26262;49.836;6.632;2022-12-08T04:23:25;14.60;;;8.13;;
39346;SDS011;26262;49.836;6.632;2022-12-08T04:25:50;13.00;;;7.82;;
39346;SDS011;26262;49.836;6.632;2022-12-08T04:28:16;13.38;;;7.00;;
39346;SDS011;26262;49.836;6.632;2022-12-08T04:30:42;11.73;;;7.20;;
39346;SDS011;26262;49.836;6.632;2022-12-08T04:33:08;9.50;;;6.25;;
39346;SDS011;26262;49.836;6.632;2022-12-08T04:35:34;9.68;;;6.35;;
39346;SDS011;26262;49.836;6.632;2022-12-08T04:38:00;11.15;;;6.38;;
39346;SDS011;26262;49.836;6.632;2022-12-08T04:40:26;9.55;;;6.03;;
39346;SDS011;26262;49.836;6.632;2022-12-08T04:42:51;11.43;;;6.35;;
39346;SDS011;26262;49.836;6.632;2022-12-08T04:45:17;10.63;;;5.78;;
39346;SDS011;26262;49.836;6.632;2022-12-08T04:47:42;12.43;;;6.07;;
39346;SDS011;26262;49.836;6.632;2022-12-08T04:50:08;11.30;;;6.05;;
39346;SDS011;26262;49.836;6.632;2022-12-08T04:52:34;8.90;;;5.82;;
39346;SDS011;26262;49.836;6.632;2022-12-08T04:55:00;8.93;;;5.63;;
39346;SDS011;26262;49.836;6.632;2022-12-08T04:57:26;8.38;;;5.53;;
39346;SDS011;26262;49.836;6.632;2022-12-08T04:59:51;10.00;;;5.72;;
39346;SDS011;26262;49.836;6.632;2022-12-08T05:02:17;8.35;;;6.00;;
39346;SDS011;26262;49.836;6.632;2022-12-08T05:04:42;9.73;;;5.70;;
39346;SDS011;26262;49.836;6.632;2022-12-08T05:07:08;7.80;;;5.22;;
39346;SDS011;26262;49.836;6.632;2022-12-08T05:09:34;8.07;;;4.70;;
39346;SDS011;26262;49.836;6.632;2022-12-08T05:11:59;7.57;;;4.45;;
39346;SDS011;26262;49.836;6.632;2022-12-08T05:14:25;9.65;;;4.10;;
39346;SDS011;26262;49.836;6.632;2022-12-08T05:16:50;6.00;;;4.38;;
39346;SDS011;26262;49.836;6.632;2022-12-08T05:19:16;7.35;;;4.68;;
39346;SDS011;26262;49.836;6.632;2022-12-08T05:21:42;8.55;;;4.90;;
39346;SDS011;26262;49.836;6.632;2022-12-08T05:24:08;6.60;;;4.43;;
39346;SDS011;26262;49.836;6.632;2022-12-08T05:26:34;6.93;;;4.07;;
39346;SDS011;26262;49.836;6.632;2022-12-08T05:28:59;7.65;;;4.53;;
39346;SDS011;26262;49.836;6.632;2022-12-08T05:31:25;7.05;;;3.95;;
39346;SDS011;26262;49.836;6.632;2022-12-08T05:33:51;10.80;;;5.25;;
39346;SDS011;26262;49.836;6.632;2022-12-08T05:36:17;7.70;;;3.97;;
39346;SDS011;26262;49.836;6.632;2022-12-08T05:38:43;7.07;;;4.22;;
39346;SDS011;26262;49.836;6.632;2022-12-08T05:41:12;7.72;;;4.50;;
39346;SDS011;26262;49.836;6.632;2022-12-08T05:43:39;8.05;;;3.72;;
39346;SDS011;26262;49.836;6.632;2022-12-08T05:46:05;7.85;;;4.32;;
39346;SDS011;26262;49.836;6.632;2022-12-08T05:48:32;10.88;;;4.95;;
39346;SDS011;26262;49.836;6.632;2022-12-08T05:50:57;6.70;;;4.22;;
39346;SDS011;26262;49.836;6.632;2022-12-08T05:53:23;6.80;;;3.92;;
39346;SDS011;26262;49.836;6.632;2022-12-08T05:55:49;7.35;;;4.60;;
39346;SDS011;26262;49.836;6.632;2022-12-08T05:58:15;8.43;;;4.45;;
39346;SDS011;26262;49.836;6.632;2022-12-08T06:00:43;7.20;;;4.30;;
39346;SDS011;26262;49.836;6.632;2022-12-08T06:03:11;7.82;;;5.72;;
39346;SDS011;26262;49.836;6.632;2022-12-08T06:05:37;8.88;;;4.80;;
39346;SDS011;26262;49.836;6.632;2022-12-08T06:08:04;7.83;;;4.63;;
39346;SDS011;26262;49.836;6.632;2022-12-08T06:10:29;8.07;;;5.50;;
39346;SDS011;26262;49.836;6.632;2022-12-08T06:12:55;6.15;;;4.47;;
39346;SDS011;26262;49.836;6.632;2022-12-08T06:15:21;9.07;;;5.82;;
39346;SDS011;26262;49.836;6.632;2022-12-08T06:17:46;8.73;;;6.25;;
39346;SDS011;26262;49.836;6.632;2022-12-08T06:20:12;9.82;;;5.63;;
39346;SDS011;26262;49.836;6.632;2022-12-08T06:22:37;10.57;;;6.50;;
39346;SDS011;26262;49.836;6.632;2022-12-08T06:25:03;10.13;;;6.30;;
39346;SDS011;26262;49.836;6.632;2022-12-08T06:27:29;9.32;;;6.45;;
39346;SDS011;26262;49.836;6.632;2022-12-08T06:29:55;10.43;;;6.20;;
39346;SDS011;26262;49.836;6.632;2022-12-08T06:32:21;9.15;;;5.40;;
39346;SDS011;26262;49.836;6.632;2022-12-08T06:34:47;8.48;;;5.18;;
39346;SDS011;26262;49.836;6.632;2022-12-08T06:37:12;8.45;;;5.20;;
39346;SDS011;26262;49.836;6.632;2022-12-08T06:39:38;10.52;;;4.88;;
39346;SDS011;26262;49.836;6.632;2022-12-08T06:42:03;8.63;;;5.22;;
39346;SDS011;26262;49.836;6.632;2022-12-08T06:44:47;9.80;;;5.80;;
39346;SDS011;26262;49.836;6.632;2022-12-08T06:47:14;9.43;;;5.15;;
39346;SDS011;26262;49.836;6.632;2022-12-08T06:49:39;8.98;;;5.30;;
39346;SDS011;26262;49.836;6.632;2022-12-08T06:52:05;8.05;;;5.05;;
39346;SDS011;26262;49.836;6.632;2022-12-08T06:54:30;6.55;;;4.75;;
39346;SDS011;26262;49.836;6.632;2022-12-08T06:56:56;8.75;;;5.40;;
39346;SDS011;26262;49.836;6.632;2022-12-08T06:59:21;8.00;;;4.82;;
39346;SDS011;26262;49.836;6.632;2022-12-08T07:01:50;9.65;;;5.25;;
39346;SDS011;26262;49.836;6.632;2022-12-08T07:04:15;7.28;;;4.90;;
39346;SDS011;26262;49.836;6.632;2022-12-08T07:06:41;8.80;;;5.22;;
39346;SDS011;26262;49.836;6.632;2022-12-08T07:09:06;8.82;;;6.20;;
39346;SDS011;26262;49.836;6.632;2022-12-08T07:11:32;10.60;;;6.78;;
39346;SDS011;26262;49.836;6.632;2022-12-08T07:13:58;9.15;;;7.00;;
39346;SDS011;26262;49.836;6.632;2022-12-08T07:16:23;10.25;;;7.00;;
39346;SDS011;26262;49.836;6.632;2022-12-08T07:18:49;10.20;;;6.50;;
39346;SDS011;26262;49.836;6.632;2022-12-08T07:21:15;10.52;;;6.88;;
39346;SDS011;26262;49.836;6.632;2022-12-08T07:23:42;7.43;;;6.03;;
39346;SDS011;26262;49.836;6.632;2022-12-08T07:26:10;8.95;;;6.18;;
39346;SDS011;26262;49.836;6.632;2022-12-08T07:28:37;8.07;;;6.10;;
39346;SDS011;26262;49.836;6.632;2022-12-08T07:31:04;8.75;;;5.95;;
39346;SDS011;26262;49.836;6.632;2022-12-08T07:33:31;10.35;;;6.55;;
39346;SDS011;26262;49.836;6.632;2022-12-08T07:36:01;7.10;;;5.50;;
39346;SDS011;26262;49.836;6.632;2022-12-08T07:38:28;6.90;;;5.40;;
39346;SDS011;26262;49.836;6.632;2022-12-08T07:40:54;7.68;;;5.30;;
39346;SDS011;26262;49.836;6.632;2022-12-08T07:43:20;8.45;;;5.18;;
39346;SDS011;26262;49.836;6.632;2022-12-08T07:45:46;7.47;;;5.72;;
39346;SDS011;26262;49.836;6.632;2022-12-08T07:48:12;7.50;;;5.47;;
39346;SDS011;26262;49.836;6.632;2022-12-08T07:50:37;8.65;;;5.57;;
39346;SDS011;26262;49.836;6.632;2022-12-08T07:53:03;8.25;;;5.03;;
39346;SDS011;26262;49.836;6.632;2022-12-08T07:55:29;6.88;;;4.75;;
39346;SDS011;26262;49.836;6.632;2022-12-08T07:57:55;9.80;;;5.80;;
39346;SDS011;26262;49.836;6.632;2022-12-08T08:00:20;10.77;;;5.95;;
39346;SDS011;26262;49.836;6.632;2022-12-08T08:02:46;7.95;;;5.13;;
39346;SDS011;26262;49.836;6.632;2022-12-08T08:05:12;11.73;;;5.63;;
39346;SDS011;26262;49.836;6.632;2022-12-08T08:07:37;9.93;;;5.60;;
39346;SDS011;26262;49.836;6.632;2022-12-08T08:10:06;7.30;;;4.68;;
39346;SDS011;26262;49.836;6.632;2022-12-08T08:12:32;7.10;;;5.53;;
39346;SDS011;26262;49.836;6.632;2022-12-08T08:14:58;8.88;;;4.80;;
39346;SDS011;26262;49.836;6.632;2022-12-08T08:17:24;9.00;;;4.65;;
39346;SDS011;26262;49.836;6.632;2022-12-08T08:19:49;6.68;;;4.60;;
39346;SDS011;26262;49.836;6.632;2022-12-08T08:22:15;7.75;;;4.78;;
39346;SDS011;26262;49.836;6.632;2022-12-08T08:24:40;7.35;;;4.80;;
39346;SDS011;26262;49.836;6.632;2022-12-08T08:27:06;7.75;;;5.05;;
39346;SDS011;26262;49.836;6.632;2022-12-08T08:29:31;9.00;;;4.85;;
39346;SDS011;26262;49.836;6.632;2022-12-08T08:31:57;8.15;;;4.72;;
39346;SDS011;26262;49.836;6.632;2022-12-08T08:34:23;8.10;;;4.43;;
39346;SDS011;26262;49.836;6.632;2022-12-08T08:36:49;26.15;;;7.97;;
39346;SDS011;26262;49.836;6.632;2022-12-08T08:39:14;24.67;;;8.98;;
39346;SDS011;26262;49.836;6.632;2022-12-08T08:41:40;10.15;;;5.30;;
39346;SDS011;26262;49.836;6.632;2022-12-08T08:44:05;9.85;;;4.68;;
39346;SDS011;26262;49.836;6.632;2022-12-08T08:46:31;10.48;;;4.90;;
39346;SDS011;26262;49.836;6.632;2022-12-08T08:48:56;12.02;;;5.32;;
39346;SDS011;26262;49.836;6.632;2022-12-08T08:51:22;15.45;;;8.88;;
39346;SDS011;26262;49.836;6.632;2022-12-08T08:53:48;14.57;;;8.60;;
39346;SDS011;26262;49.836;6.632;2022-12-08T08:56:14;10.65;;;6.25;;
39346;SDS011;26262;49.836;6.632;2022-12-08T08:58:43;10.98;;;8.13;;
39346;SDS011;26262;49.836;6.632;2022-12-08T09:01:14;10.23;;;6.07;;
39346;SDS011;26262;49.836;6.632;2022-12-08T09:03:41;12.65;;;7.47;;
39346;SDS011;26262;49.836;6.632;2022-12-08T09:06:07;12.88;;;9.60;;
39346;SDS011;26262;49.836;6.632;2022-12-08T09:08:33;12.75;;;9.60;;
39346;SDS011;26262;49.836;6.632;2022-12-08T09:10:58;10.85;;;8.52;;
39346;SDS011;26262;49.836;6.632;2022-12-08T09:13:24;12.73;;;7.22;;
39346;SDS011;26262;49.836;6.632;2022-12-08T09:15:49;10.88;;;8.00;;
39346;SDS011;26262;49.836;6.632;2022-12-08T09:18:15;11.90;;;8.32;;
39346;SDS011;26262;49.836;6.632;2022-12-08T09:20:40;12.00;;;8.40;;
39346;SDS011;26262;49.836;6.632;2022-12-08T09:23:06;12.20;;;8.73;;
39346;SDS011;26262;49.836;6.632;2022-12-08T09:25:31;11.63;;;8.70;;
39346;SDS011;26262;49.836;6.632;2022-12-08T09:27:57;13.18;;;9.25;;
39346;SDS011;26262;49.836;6.632;2022-12-08T09:30:23;11.40;;;8.32;;
39346;SDS011;26262;49.836;6.632;2022-12-08T09:32:48;11.88;;;8.48;;
39346;SDS011;26262;49.836;6.632;2022-12-08T09:35:14;12.70;;;8.63;;
39346;SDS011;26262;49.836;6.632;2022-12-08T09:37:39;12.18;;;8.77;;
39346;SDS011;26262;49.836;6.632;2022-12-08T09:40:06;11.15;;;7.60;;
39346;SDS011;26262;49.836;6.632;2022-12-08T09:42:37;10.15;;;7.50;;
39346;SDS011;26262;49.836;6.632;2022-12-08T09:45:19;12.77;;;9.05;;
39346;SDS011;26262;49.836;6.632;2022-12-08T09:50:29;12.35;;;7.57;;
39346;SDS011;26262;49.836;6.632;2022-12-08T09:53:02;9.55;;;7.60;;
39346;SDS011;26262;49.836;6.632;2022-12-08T09:55:48;12.95;;;7.47;;
39346;SDS011;26262;49.836;6.632;2022-12-08T09:58:20;9.95;;;8.00;;
39346;SDS011;26262;49.836;6.632;2022-12-08T10:00:56;10.60;;;7.80;;
39346;SDS011;26262;49.836;6.632;2022-12-08T10:03:23;10.45;;;7.57;;
39346;SDS011;26262;49.836;6.632;2022-12-08T10:06:00;10.68;;;7.40;;
39346;SDS011;26262;49.836;6.632;2022-12-08T10:11:12;28.38;;;8.25;;
39346;SDS011;26262;49.836;6.632;2022-12-08T10:16:46;9.52;;;6.93;;
39346;SDS011;26262;49.836;6.632;2022-12-08T10:19:20;8.57;;;6.20;;
39346;SDS011;26262;49.836;6.632;2022-12-08T10:21:47;11.20;;;6.72;;
39346;SDS011;26262;49.836;6.632;2022-12-08T10:24:33;10.55;;;7.47;;
39346;SDS011;26262;49.836;6.632;2022-12-08T10:27:05;12.73;;;8.13;;
39346;SDS011;26262;49.836;6.632;2022-12-08T10:29:35;10.13;;;7.78;;
39346;SDS011;26262;49.836;6.632;2022-12-08T10:32:15;11.30;;;7.35;;
39346;SDS011;26262;49.836;6.632;2022-12-08T10:35:00;9.00;;;6.40;;
39346;SDS011;26262;49.836;6.632;2022-12-08T10:37:26;11.13;;;7.63;;
39346;SDS011;26262;49.836;6.632;2022-12-08T10:40:04;11.45;;;8.07;;
39346;SDS011;26262;49.836;6.632;2022-12-08T10:42:36;12.25;;;7.43;;
39346;SDS011;26262;49.836;6.632;2022-12-08T10:45:20;9.82;;;7.00;;
39346;SDS011;26262;49.836;6.632;2022-12-08T10:50:41;9.93;;;6.75;;
39346;SDS011;26262;49.836;6.632;2022-12-08T11:06:22;10.05;;;6.50;;
39346;SDS011;26262;49.836;6.632;2022-12-08T11:08:59;11.23;;;6.63;;
39346;SDS011;26262;49.836;6.632;2022-12-08T11:14:23;9.40;;;6.65;;
39346;SDS011;26262;49.836;6.632;2022-12-08T11:22:22;8.25;;;6.82;;
39346;SDS011;26262;49.836;6.632;2022-12-08T11:27:36;9.38;;;6.47;;
39346;SDS011;26262;49.836;6.632;2022-12-08T11:32:50;7.88;;;6.53;;
39346;SDS011;26262;49.836;6.632;2022-12-08T11:35:24;9.02;;;6.43;;
39346;SDS011;26262;49.836;6.632;2022-12-08T11:38:01;7.65;;;6.45;;
39346;SDS011;26262;49.836;6.632;2022-12-08T11:40:39;8.73;;;6.60;;
39346;SDS011;26262;49.836;6.632;2022-12-08T11:43:16;8.63;;;6.63;;
39346;SDS011;26262;49.836;6.632;2022-12-08T11:45:57;15.65;;;12.30;;
39346;SDS011;26262;49.836;6.632;2022-12-08T11:48:32;10.68;;;6.47;;
39346;SDS011;26262;49.836;6.632;2022-12-08T11:56:35;9.05;;;5.75;;
39346;SDS011;26262;49.836;6.632;2022-12-08T12:01:56;10.20;;;6.05;;
39346;SDS011;26262;49.836;6.632;2022-12-08T12:15:41;11.93;;;9.02;;
39346;SDS011;26262;49.836;6.632;2022-12-08T12:18:29;10.02;;;7.25;;
39346;SDS011;26262;49.836;6.632;2022-12-08T12:21:10;11.18;;;7.32;;
39346;SDS011;26262;49.836;6.632;2022-12-08T12:26:25;8.45;;;5.85;;
39346;SDS011;26262;49.836;6.632;2022-12-08T12:28:57;9.45;;;5.22;;
39346;SDS011;26262;49.836;6.632;2022-12-08T12:31:39;15.82;;;5.90;;
39346;SDS011;26262;49.836;6.632;2022-12-08T12:34:09;5.80;;;4.20;;
39346;SDS011;26262;49.836;6.632;2022-12-08T12:36:44;7.13;;;4.72;;
39346;SDS011;26262;49.836;6.632;2022-12-08T12:39:13;7.05;;;5.00;;
39346;SDS011;26262;49.836;6.632;2022-12-08T12:41:44;6.88;;;4.85;;
39346;SDS011;26262;49.836;6.632;2022-12-08T12:55:49;8.23;;;4.50;;
39346;SDS011;26262;49.836;6.632;2022-12-08T12:57:37;5.53;;;4.00;;
39346;SDS011;26262;49.836;6.632;2022-12-08T13:02:45;7.28;;;4.10;;
39346;SDS011;26262;49.836;6.632;2022-12-08T13:07:55;6.47;;;3.88;;
39346;SDS011;26262;49.836;6.632;2022-12-08T13:10:28;5.53;;;3.78;;
39346;SDS011;26262;49.836;6.632;2022-12-08T13:15:55;5.78;;;3.17;;
39346;SDS011;26262;49.836;6.632;2022-12-08T13:18:23;5.47;;;3.50;;
39346;SDS011;26262;49.836;6.632;2022-12-08T13:23:49;9.93;;;4.57;;
39346;SDS011;26262;49.836;6.632;2022-12-08T13:26:32;8.23;;;4.75;;
39346;SDS011;26262;49.836;6.632;2022-12-08T13:29:12;7.00;;;4.85;;
39346;SDS011;26262;49.836;6.632;2022-12-08T13:34:56;9.80;;;6.10;;
39346;SDS011;26262;49.836;6.632;2022-12-08T13:55:47;11.05;;;6.57;;
39346;SDS011;26262;49.836;6.632;2022-12-08T13:58:15;9.15;;;6.90;;
39346;SDS011;26262;49.836;6.632;2022-12-08T14:00:52;10.85;;;6.72;;
39346;SDS011;26262;49.836;6.632;2022-12-08T14:03:24;13.57;;;7.40;;
39346;SDS011;26262;49.836;6.632;2022-12-08T14:05:50;11.00;;;7.28;;
39346;SDS011;26262;49.836;6.632;2022-12-08T14:08:20;11.00;;;6.60;;
39346;SDS011;26262;49.836;6.632;2022-12-08T14:10:56;11.43;;;6.25;;
39346;SDS011;26262;49.836;6.632;2022-12-08T14:13:26;9.45;;;6.97;;
39346;SDS011;26262;49.836;6.632;2022-12-08T14:15:53;11.30;;;7.72;;
39346;SDS011;26262;49.836;6.632;2022-12-08T14:18:29;9.40;;;6.35;;
39346;SDS011;26262;49.836;6.632;2022-12-08T14:21:03;11.65;;;6.63;;
39346;SDS011;26262;49.836;6.632;2022-12-08T14:23:36;9.70;;;6.95;;
39346;SDS011;26262;49.836;6.632;2022-12-08T14:26:02;10.73;;;7.28;;
39346;SDS011;26262;49.836;6.632;2022-12-08T14:28:29;10.65;;;8.02;;
39346;SDS011;26262;49.836;6.632;2022-12-08T14:30:58;10.32;;;7.68;;
39346;SDS011;26262;49.836;6.632;2022-12-08T14:33:24;9.40;;;6.15;;
39346;SDS011;26262;49.836;6.632;2022-12-08T14:35:51;10.73;;;6.80;;
39346;SDS011;26262;49.836;6.632;2022-12-08T14:38:19;11.15;;;6.15;;
39346;SDS011;26262;49.836;6.632;2022-12-08T14:43:31;10.10;;;6.97;;
39346;SDS011;26262;49.836;6.632;2022-12-08T14:45:59;10.30;;;6.57;;
39346;SDS011;26262;49.836;6.632;2022-12-08T14:50:58;11.75;;;6.55;;
39346;SDS011;26262;49.836;6.632;2022-12-08T14:53:29;10.20;;;6.68;;
39346;SDS011;26262;49.836;6.632;2022-12-08T14:56:07;9.05;;;5.85;;
39346;SDS011;26262;49.836;6.632;2022-12-08T14:58:38;9.80;;;5.85;;
39346;SDS011;26262;49.836;6.632;2022-12-08T15:01:04;8.65;;;6.30;;
39346;SDS011;26262;49.836;6.632;2022-12-08T15:03:32;9.60;;;5.95;;
39346;SDS011;26262;49.836;6.632;2022-12-08T15:05:59;8.32;;;5.55;;
39346;SDS011;26262;49.836;6.632;2022-12-08T15:08:29;9.15;;;5.22;;
39346;SDS011;26262;49.836;6.632;2022-12-08T15:11:10;8.90;;;4.95;;
39346;SDS011;26262;49.836;6.632;2022-12-08T15:13:44;8.70;;;4.30;;
39346;SDS011;26262;49.836;6.632;2022-12-08T15:16:24;6.78;;;4.03;;
39346;SDS011;26262;49.836;6.632;2022-12-08T15:19:04;5.72;;;3.85;;
39346;SDS011;26262;49.836;6.632;2022-12-08T15:21:30;6.68;;;4.00;;
39346;SDS011;26262;49.836;6.632;2022-12-08T15:24:01;6.32;;;3.92;;
39346;SDS011;26262;49.836;6.632;2022-12-08T15:26:26;9.45;;;4.35;;
39346;SDS011;26262;49.836;6.632;2022-12-08T15:28:53;8.18;;;4.95;;
39346;SDS011;26262;49.836;6.632;2022-12-08T15:31:19;9.55;;;5.45;;
39346;SDS011;26262;49.836;6.632;2022-12-08T15:33:45;7.10;;;4.35;;
39346;SDS011;26262;49.836;6.632;2022-12-08T15:36:11;9.38;;;4.40;;
39346;SDS011;26262;49.836;6.632;2022-12-08T15:38:36;6.75;;;4.28;;
39346;SDS011;26262;49.836;6.632;2022-12-08T15:41:02;6.95;;;4.53;;
39346;SDS011;26262;49.836;6.632;2022-12-08T15:43:29;7.35;;;4.82;;
39346;SDS011;26262;49.836;6.632;2022-12-08T15:45:55;6.45;;;4.50;;
39346;SDS011;26262;49.836;6.632;2022-12-08T15:48:22;8.05;;;4.90;;
39346;SDS011;26262;49.836;6.632;2022-12-08T15:50:50;6.40;;;4.78;;
39346;SDS011;26262;49.836;6.632;2022-12-08T15:53:16;10.32;;;5.10;;
39346;SDS011;26262;49.836;6.632;2022-12-08T15:55:42;6.75;;;4.43;;
39346;SDS011;26262;49.836;6.632;2022-12-08T15:58:17;7.45;;;4.15;;
39346;SDS011;26262;49.836;6.632;2022-12-08T16:00:45;8.45;;;4.47;;
39346;SDS011;26262;49.836;6.632;2022-12-08T16:03:18;8.77;;;4.85;;
39346;SDS011;26262;49.836;6.632;2022-12-08T16:05:54;7.43;;;4.85;;
39346;SDS011;26262;49.836;6.632;2022-12-08T16:08:21;8.38;;;4.97;;
39346;SDS011;26262;49.836;6.632;2022-12-08T16:10:46;6.45;;;4.07;;
39346;SDS011;26262;49.836;6.632;2022-12-08T16:13:14;12.35;;;6.55;;
39346;SDS011;26262;49.836;6.632;2022-12-08T16:15:58;8.13;;;5.40;;
39346;SDS011;26262;49.836;6.632;2022-12-08T16:18:26;10.13;;;6.47;;
39346;SDS011;26262;49.836;6.632;2022-12-08T16:20:54;8.45;;;5.78;;
39346;SDS011;26262;49.836;6.632;2022-12-08T16:23:19;7.85;;;5.32;;
39346;SDS011;26262;49.836;6.632;2022-12-08T16:25:45;7.28;;;4.82;;
39346;SDS011;26262;49.836;6.632;2022-12-08T16:28:11;9.30;;;5.95;;
39346;SDS011;26262;49.836;6.632;2022-12-08T16:30:36;7.82;;;4.90;;
39346;SDS011;26262;49.836;6.632;2022-12-08T16:33:02;12.18;;;6.93;;
39346;SDS011;26262;49.836;6.632;2022-12-08T16:35:28;28.67;;;12.25;;
39346;SDS011;26262;49.836;6.632;2022-12-08T16:37:54;32.22;;;12.68;;
39346;SDS011;26262;49.836;6.632;2022-12-08T16:40:19;33.80;;;15.88;;
39346;SDS011;26262;49.836;6.632;2022-12-08T16:42:45;21.23;;;11.23;;
39346;SDS011;26262;49.836;6.632;2022-12-08T16:45:17;14.98;;;8.35;;
39346;SDS011;26262;49.836;6.632;2022-12-08T16:47:48;18.00;;;9.98;;
39346;SDS011;26262;49.836;6.632;2022-12-08T16:50:20;11.13;;;6.68;;
39346;SDS011;26262;49.836;6.632;2022-12-08T16:52:57;10.20;;;5.68;;
39346;SDS011;26262;49.836;6.632;2022-12-08T16:55:27;8.18;;;5.35;;
39346;SDS011;26262;49.836;6.632;2022-12-08T16:57:53;7.85;;;5.00;;
39346;SDS011;26262;49.836;6.632;2022-12-08T17:00:20;9.70;;;5.50;;
39346;SDS011;26262;49.836;6.632;2022-12-08T17:02:47;8.30;;;4.43;;
39346;SDS011;26262;49.836;6.632;2022-12-08T17:05:14;6.45;;;4.13;;
39346;SDS011;26262;49.836;6.632;2022-12-08T17:07:42;8.18;;;4.32;;
39346;SDS011;26262;49.836;6.632;2022-12-08T17:10:09;8.05;;;4.30;;